首页
METAR-TAF:

METAR-TAF

机场 :

巴黎-奥利机场

巴黎-奥利, 法国

纬度: 48-44N, 经度: 002-24E, 海拔: 89米

当前天气观测

该预报发布于45分钟前的18:00 UTC
风速8节,风向西北,在西转西北之间变化
温度 14°C
湿度 77%
气压 1002 hPa
能见度10公里或以上
散云层高于2700英尺
多云层高于3500英尺
多云层高于4300英尺

METAR: LFPO 041800Z AUTO 32008KT 290V350 9999 SCT027 BKN035 BKN043 14/10 Q1002 NOSIG

时间: 20:45 (18:45 UTC)

预报

该预报发布于1小时和45分钟前的17:00 UTC
预报有效从04日的 18点(UTC)到 05日的 24点(UTC)
风速8节,风向西北
能见度10公里或以上
多云层高于3000英尺
成为
从 05日的 06点(UTC)到 05日的 08点(UTC)
风速12节,风向西南,有时为22节阵风
短暂存在
从 05日的 12点(UTC)到 05日的 15点(UTC)
风速20节,风向西,有时为30节阵风
成为
从 05日的 16点(UTC)到 05日的 18点(UTC)
风速10节,风向西

TAF: LFPO 041700Z 0418/0524 32008KT 9999 BKN030 BECMG 0506/0508 23012G22KT TEMPO 0512/0515 27020G30KT BECMG 0516/0518 26010KT

超过4000个机场的气象观测和天气预报(METAR&TAF报告)。

可查询的气象台以黄色和红色小点在地图上表示。

将鼠标移到小点上方,可查看气象台名称。

然后点击查看天气观测和预报。

如需切换地图:点击带黑十字的绿色按钮放大地图;点击带横线的绿色按钮缩小地图;或者点击绿色箭头查看邻近地区的地图。


METAR-TAF: